Time;durP1;ratioP1;P1;durP2;ratioP2;P2;SDS_P1;SDS_P2;PMS_P1;PMS_P2;Temp;Humidity;BMP_temperature;BMP_pressure;BME280_temperature;BME280_humidity;BME280_pressure;Samples;Min_cycle;Max_cycle;Signal;HPM_P1;HPM_P2
2024/03/18 00:00:15;;;;;;;6.60;3.78;;;;;;;9.67;77.95;98726.97;5009019;27;103257;-74
2024/03/18 00:02:42;;;;;;;11.80;4.43;;;;;;;9.65;77.12;98726.31;4990140;27;102986;-72
2024/03/18 00:05:11;;;;;;;8.65;4.78;;;;;;;9.06;80.51;98717.34;5008504;27;102863;-72
2024/03/18 00:07:37;;;;;;;12.60;5.32;;;;;;;8.85;80.88;98723.00;4994600;27;103239;-73
2024/03/18 00:10:12;;;;;;;7.72;3.88;;;;;;;9.19;80.48;98716.91;5007824;27;103271;-73
2024/03/18 00:12:43;;;;;;;11.63;5.65;;;;;;;8.86;81.02;98713.28;5007463;27;102822;-73
2024/03/18 00:15:10;;;;;;;7.95;4.90;;;;;;;8.97;81.47;98705.06;4990625;28;102999;-73
2024/03/18 00:17:36;;;;;;;10.25;4.70;;;;;;;9.07;80.97;98708.44;5006295;27;105690;-73
2024/03/18 00:20:12;;;;;;;10.27;4.93;;;;;;;9.03;80.72;98698.34;5009346;28;103332;-73
2024/03/18 00:22:42;;;;;;;9.20;5.10;;;;;;;8.88;81.66;98701.59;4994870;27;102858;-73
2024/03/18 00:25:11;;;;;;;10.73;5.38;;;;;;;8.96;81.27;98698.13;4990922;28;102811;-72
2024/03/18 00:27:37;;;;;;;10.38;5.05;;;;;;;8.99;81.52;98707.56;5006596;27;103280;-73
2024/03/18 00:30:10;;;;;;;8.15;4.70;;;;;;;9.06;81.18;98700.66;5005976;27;104748;-73
2024/03/18 00:32:36;;;;;;;10.15;6.25;;;;;;;9.06;80.65;98708.59;5007793;27;102796;-73
2024/03/18 00:35:02;;;;;;;8.85;5.88;;;;;;;9.09;80.82;98703.84;4993471;28;102783;-73
2024/03/18 00:37:29;;;;;;;10.68;5.57;;;;;;;8.89;81.97;98712.97;4989549;28;106489;-72
2024/03/18 00:39:58;;;;;;;11.52;5.43;;;;;;;9.07;81.85;98700.50;4981589;28;106443;-74
2024/03/18 00:42:24;;;;;;;11.93;5.43;;;;;;;9.08;81.60;98696.06;5008478;27;102894;-74
2024/03/18 00:44:50;;;;;;;8.95;5.75;;;;;;;9.08;81.43;98690.78;4974287;28;102775;-73
2024/03/18 00:47:15;;;;;;;9.57;4.82;;;;;;;9.20;81.29;98694.78;5006681;28;103169;-74
2024/03/18 00:49:41;;;;;;;11.18;4.65;;;;;;;9.27;81.04;98694.97;5007801;28;103760;-73
2024/03/18 00:52:07;;;;;;;10.35;5.65;;;;;;;9.33;80.69;98699.63;4988727;28;102698;-73
2024/03/18 00:54:36;;;;;;;9.82;5.35;;;;;;;9.35;80.06;98689.69;4989470;28;103020;-72
2024/03/18 00:57:02;;;;;;;8.70;5.07;;;;;;;9.43;80.07;98692.41;4989121;28;103211;-73
2024/03/18 00:59:27;;;;;;;10.68;5.82;;;;;;;9.44;79.89;98685.28;5003596;27;105766;-72
2024/03/18 01:01:56;;;;;;;11.00;5.18;;;;;;;9.48;80.00;98673.38;4990256;28;102666;-73
2024/03/18 01:04:22;;;;;;;8.63;4.60;;;;;;;9.54;80.17;98670.09;4992964;28;102875;-73
2024/03/18 01:06:47;;;;;;;9.48;5.00;;;;;;;9.55;79.86;98670.91;5004730;27;103171;-72
2024/03/18 01:09:13;;;;;;;9.70;6.05;;;;;;;9.43;80.08;98663.31;4989148;28;103860;-74
2024/03/18 01:11:39;;;;;;;11.50;5.32;;;;;;;9.43;80.71;98659.81;4991234;27;102932;-74
2024/03/18 01:14:05;;;;;;;12.55;6.25;;;;;;;9.22;81.39;98661.13;4986610;28;104712;-74
2024/03/18 01:16:30;;;;;;;9.45;5.50;;;;;;;9.30;81.31;98657.63;5002051;27;103436;-73
2024/03/18 01:18:56;;;;;;;12.02;5.53;;;;;;;9.30;81.75;98660.28;5005495;28;105146;-73
2024/03/18 01:21:24;;;;;;;12.00;7.28;;;;;;;9.16;81.84;98655.59;4992563;28;102722;-73
2024/03/18 01:23:50;;;;;;;12.63;7.55;;;;;;;8.71;83.96;98645.22;5008028;27;102845;-73
2024/03/18 01:26:18;;;;;;;14.65;7.43;;;;;;;8.72;84.73;98643.41;4992637;28;107193;-72
2024/03/18 01:28:44;;;;;;;12.00;6.70;;;;;;;8.82;84.74;98643.25;5006182;27;103187;-73
2024/03/18 01:31:10;;;;;;;12.77;7.22;;;;;;;8.93;83.58;98645.63;4994359;28;102743;-72
2024/03/18 01:33:35;;;;;;;10.50;6.25;;;;;;;9.01;83.63;98643.00;4992707;27;102656;-74
2024/03/18 01:36:04;;;;;;;11.88;5.93;;;;;;;9.12;82.69;98640.09;4996576;28;105456;-74
2024/03/18 01:38:29;;;;;;;12.70;7.00;;;;;;;9.02;82.98;98635.94;4983666;28;103148;-73
2024/03/18 01:40:56;;;;;;;14.05;7.05;;;;;;;8.75;83.07;98636.00;5007080;28;103031;-73
2024/03/18 01:43:22;;;;;;;11.93;6.40;;;;;;;8.88;83.45;98640.00;5006977;28;106433;-73
2024/03/18 01:45:48;;;;;;;10.48;6.97;;;;;;;8.66;83.56;98634.31;5004770;27;103491;-74
2024/03/18 01:48:14;;;;;;;10.43;5.82;;;;;;;8.79;83.48;98620.66;4986977;28;105470;-74
2024/03/18 01:50:41;;;;;;;12.15;7.22;;;;;;;8.73;83.15;98622.09;5009566;27;102870;-74
2024/03/18 01:53:11;;;;;;;10.25;6.40;;;;;;;8.76;83.17;98626.25;5006707;28;102887;-74
2024/03/18 01:55:38;;;;;;;11.98;7.18;;;;;;;8.68;82.87;98627.03;4990963;27;103858;-73
2024/03/18 01:58:06;;;;;;;12.88;7.93;;;;;;;8.54;83.30;98620.53;5010220;27;103171;-74
2024/03/18 02:00:35;;;;;;;13.02;7.32;;;;;;;8.68;82.88;98626.22;4991020;28;102679;-74
2024/03/18 02:03:03;;;;;;;12.35;6.97;;;;;;;8.65;83.07;98616.78;5011462;28;102802;-74
2024/03/18 02:05:30;;;;;;;12.90;6.88;;;;;;;8.59;83.05;98617.41;5006864;27;103287;-73
2024/03/18 02:07:57;;;;;;;10.95;6.38;;;;;;;8.75;82.99;98616.66;5012050;27;103218;-73
2024/03/18 02:10:23;;;;;;;11.48;6.50;;;;;;;8.84;82.47;98614.88;4987835;28;103554;-73
2024/03/18 02:12:49;;;;;;;10.43;7.18;;;;;;;8.77;82.54;98612.88;4991271;27;102788;-74
2024/03/18 02:15:14;;;;;;;11.93;7.32;;;;;;;8.56;83.34;98612.47;4980786;28;103274;-74
2024/03/18 02:17:40;;;;;;;13.13;7.43;;;;;;;8.39;84.13;98622.06;4993802;28;103605;-74
2024/03/18 02:20:09;;;;;;;13.90;7.35;;;;;;;8.37;84.45;98603.75;4992384;28;102997;-74
2024/03/18 02:22:38;;;;;;;10.73;7.18;;;;;;;8.54;84.52;98609.13;5001663;27;102970;-73
2024/03/18 02:25:04;;;;;;;11.45;7.30;;;;;;;8.61;84.12;98599.63;5011952;28;103236;-72
2024/03/18 02:27:30;;;;;;;10.15;6.85;;;;;;;8.73;83.51;98600.97;5008721;28;103493;-76
2024/03/18 02:29:56;;;;;;;9.75;6.40;;;;;;;8.75;83.32;98595.53;4989215;28;102804;-75
2024/03/18 02:32:22;;;;;;;13.45;7.60;;;;;;;8.66;83.04;98588.56;5009335;28;102813;-73
2024/03/18 02:34:48;;;;;;;13.43;7.05;;;;;;;8.63;83.60;98582.63;5011998;27;103071;-73
2024/03/18 02:37:13;;;;;;;15.63;6.90;;;;;;;8.73;83.10;98587.78;4966531;28;105741;-74
2024/03/18 02:39:39;;;;;;;9.07;6.00;;;;;;;8.85;82.99;98584.84;4970199;27;102939;-73
2024/03/18 02:42:06;;;;;;;10.38;5.57;;;;;;;8.96;82.56;98577.47;4982073;28;102683;-74
2024/03/18 02:44:34;;;;;;;10.98;5.47;;;;;;;9.00;82.50;98572.69;4990674;28;104640;-74
2024/03/18 02:47:02;;;;;;;7.35;5.25;;;;;;;8.98;82.13;98563.28;4993300;28;105246;-74
2024/03/18 02:49:28;;;;;;;7.53;4.68;;;;;;;9.00;82.18;98567.41;4991538;27;102727;-73
2024/03/18 02:51:56;;;;;;;8.23;4.57;;;;;;;9.09;81.96;98562.97;4997584;28;102929;-74
2024/03/18 02:54:27;;;;;;;9.93;5.35;;;;;;;9.07;82.04;98557.84;5004295;28;103278;-74
2024/03/18 02:56:52;;;;;;;10.88;6.15;;;;;;;8.66;82.91;98549.81;5007568;28;107652;-74
2024/03/18 02:59:18;;;;;;;14.93;5.93;;;;;;;8.83;83.36;98549.84;4981000;28;102790;-73
2024/03/18 03:01:49;;;;;;;10.38;5.80;;;;;;;8.75;83.61;98554.13;4994028;27;102917;-73
2024/03/18 03:04:16;;;;;;;10.38;6.82;;;;;;;8.37;85.24;98539.56;4987006;27;105181;-74
2024/03/18 03:06:42;;;;;;;10.65;6.88;;;;;;;8.21;86.22;98542.97;5010621;27;103246;-73
2024/03/18 03:09:09;;;;;;;11.55;6.60;;;;;;;8.27;85.89;98542.34;5009787;28;104317;-73
2024/03/18 03:11:35;;;;;;;9.45;5.35;;;;;;;8.57;85.29;98527.81;5009814;27;102765;-73
2024/03/18 03:14:01;;;;;;;9.73;6.05;;;;;;;8.62;84.74;98527.34;4993533;28;104630;-74
2024/03/18 03:16:30;;;;;;;11.30;5.07;;;;;;;8.72;84.53;98525.38;5011126;27;103139;-73
2024/03/18 03:18:56;;;;;;;8.05;5.05;;;;;;;8.79;84.10;98529.06;4990265;28;103992;-73
2024/03/18 03:21:22;;;;;;;9.73;5.40;;;;;;;8.74;83.47;98539.25;5009036;27;105017;-73
2024/03/18 03:23:48;;;;;;;8.02;5.25;;;;;;;8.81;83.70;98531.53;5010361;27;103424;-73
2024/03/18 03:26:16;;;;;;;8.10;4.43;;;;;;;8.85;83.29;98532.03;4962423;28;105543;-73
2024/03/18 03:28:45;;;;;;;8.30;4.40;;;;;;;8.96;83.62;98529.06;4993972;27;102985;-73
2024/03/18 03:31:14;;;;;;;10.00;6.00;;;;;;;8.54;83.81;98532.59;5008782;28;102707;-73
2024/03/18 03:33:42;;;;;;;10.50;5.10;;;;;;;8.66;84.11;98528.69;4991096;27;104502;-73
2024/03/18 03:36:08;;;;;;;7.47;4.97;;;;;;;8.83;83.98;98523.44;5007910;28;103876;-74
2024/03/18 03:38:34;;;;;;;11.77;5.93;;;;;;;8.53;84.68;98521.22;5009994;27;102729;-73
2024/03/18 03:41:01;;;;;;;9.15;4.57;;;;;;;8.82;84.03;98527.06;4988747;28;102746;-74
2024/03/18 03:43:26;;;;;;;10.52;4.95;;;;;;;8.92;83.57;98523.31;5006622;27;103230;-73
2024/03/18 03:45:57;;;;;;;8.15;4.82;;;;;;;9.00;83.37;98530.44;4991254;28;103100;-73
2024/03/18 03:48:26;;;;;;;8.32;4.88;;;;;;;9.05;83.19;98528.13;4997223;28;102660;-73
2024/03/18 03:50:55;;;;;;;9.90;4.47;;;;;;;9.11;82.96;98519.53;5009883;28;102719;-72
2024/03/18 03:53:23;;;;;;;10.10;5.95;;;;;;;8.82;83.35;98517.34;5007848;28;103415;-74
2024/03/18 03:55:52;;;;;;;12.43;5.25;;;;;;;8.90;83.92;98519.19;5012398;28;103288;-72
2024/03/18 03:58:18;;;;;;;7.10;4.28;;;;;;;9.02;83.00;98517.06;4988611;28;105737;-73
2024/03/18 04:00:45;;;;;;;8.05;4.57;;;;;;;9.11;83.08;98508.97;5001654;28;103671;-73
2024/03/18 04:03:17;;;;;;;7.50;4.50;;;;;;;9.19;82.79;98499.41;5006521;27;103118;-75
2024/03/18 04:05:44;;;;;;;8.38;4.63;;;;;;;9.20;82.33;98495.78;5008355;27;103232;-73
2024/03/18 04:08:12;;;;;;;10.50;6.28;;;;;;;8.99;82.80;98486.50;4992518;28;102898;-72
2024/03/18 04:10:38;;;;;;;10.57;6.05;;;;;;;8.78;83.56;98479.84;5007855;27;103153;-72
2024/03/18 04:13:04;;;;;;;13.40;6.43;;;;;;;8.71;84.48;98478.03;4994427;27;106422;-73
2024/03/18 04:15:30;;;;;;;10.82;6.30;;;;;;;8.84;84.67;98473.09;5004291;27;110589;-72
2024/03/18 04:17:58;;;;;;;8.57;4.72;;;;;;;8.97;83.75;98472.63;5013714;27;102684;-73
2024/03/18 04:20:24;;;;;;;7.40;5.32;;;;;;;9.07;83.55;98473.28;4996991;28;102726;-74
2024/03/18 04:22:52;;;;;;;8.98;4.95;;;;;;;9.14;82.81;98473.47;5007952;28;103223;-73
2024/03/18 04:25:21;;;;;;;10.23;6.78;;;;;;;8.79;83.87;98468.31;4989120;28;106156;-73
2024/03/18 04:27:47;;;;;;;10.38;5.63;;;;;;;8.91;83.70;98468.00;5006328;27;102691;-74
2024/03/18 04:30:19;;;;;;;11.93;7.07;;;;;;;8.65;84.40;98473.38;4982047;28;102728;-75
2024/03/18 04:32:47;;;;;;;12.55;6.78;;;;;;;8.55;84.86;98474.34;4985621;27;103564;-74
2024/03/18 04:35:14;;;;;;;14.02;6.97;;;;;;;8.46;85.13;98476.16;5007001;28;103561;-75
2024/03/18 04:37:46;;;;;;;12.38;7.30;;;;;;;8.58;85.03;98479.31;5010008;28;104229;-74
2024/03/18 04:40:17;;;;;;;11.23;6.20;;;;;;;8.60;84.68;98477.34;4975234;28;104657;-74
2024/03/18 04:42:44;;;;;;;10.77;6.93;;;;;;;8.37;85.11;98474.44;5011101;27;103773;-74
2024/03/18 04:45:14;;;;;;;9.38;6.28;;;;;;;8.50;85.23;98470.53;5010336;27;103978;-73
2024/03/18 04:47:41;;;;;;;17.77;7.20;;;;;;;8.49;84.90;98468.88;5013266;27;102769;-73
2024/03/18 04:50:10;;;;;;;12.55;6.05;;;;;;;8.70;84.94;98465.81;4996204;28;103039;-73
2024/03/18 04:52:38;;;;;;;9.45;5.45;;;;;;;8.79;84.30;98462.22;5011916;27;105820;-73
2024/03/18 04:55:06;;;;;;;9.70;4.78;;;;;;;8.81;84.21;98459.41;4993167;28;105484;-74
2024/03/18 04:57:35;;;;;;;9.15;5.40;;;;;;;8.90;83.61;98461.88;5009245;27;102786;-73
2024/03/18 05:00:06;;;;;;;9.05;4.90;;;;;;;9.00;83.81;98453.81;5013419;28;102727;-74
2024/03/18 05:02:31;;;;;;;9.57;4.78;;;;;;;9.02;83.46;98454.47;5012427;27;103639;-72
2024/03/18 05:04:57;;;;;;;14.27;5.43;;;;;;;9.05;83.21;98454.16;5005978;27;104482;-74
2024/03/18 05:07:23;;;;;;;16.85;7.28;;;;;;;8.94;83.26;98455.28;5009833;28;102777;-73
2024/03/18 05:09:53;;;;;;;11.88;6.70;;;;;;;8.75;83.76;98459.06;5006568;27;102803;-74
2024/03/18 05:12:19;;;;;;;12.80;7.05;;;;;;;8.61;84.74;98457.88;5012947;28;104351;-74
2024/03/18 05:14:44;;;;;;;9.68;5.72;;;;;;;8.87;84.07;98461.38;4992385;27;103268;-73
2024/03/18 05:17:10;;;;;;;15.95;7.00;;;;;;;8.88;84.06;98458.59;4990704;28;104382;-73
2024/03/18 05:19:38;;;;;;;13.45;6.95;;;;;;;8.87;84.08;98456.09;5012063;27;102667;-74
2024/03/18 05:22:04;;;;;;;10.48;6.07;;;;;;;8.84;84.58;98453.78;4981960;28;104337;-74
2024/03/18 05:24:33;;;;;;;13.43;7.03;;;;;;;8.73;84.52;98454.94;4975981;28;103180;-75
2024/03/18 05:26:59;;;;;;;12.63;6.60;;;;;;;8.74;84.71;98456.59;4969287;28;102814;-72
2024/03/18 05:29:25;;;;;;;14.52;6.80;;;;;;;8.60;85.14;98450.13;5007124;28;102751;-73
2024/03/18 05:31:54;;;;;;;11.23;7.00;;;;;;;8.41;85.25;98457.31;4993203;28;107649;-73
2024/03/18 05:34:19;;;;;;;11.15;6.65;;;;;;;8.54;85.52;98450.75;5007255;28;103216;-74
2024/03/18 05:36:49;;;;;;;13.13;6.43;;;;;;;8.64;84.74;98446.16;4980245;28;102663;-74
2024/03/18 05:39:15;;;;;;;11.05;5.30;;;;;;;8.77;84.96;98446.50;4987807;28;102914;-73
2024/03/18 05:41:41;;;;;;;9.13;5.38;;;;;;;8.84;84.51;98441.41;4991856;27;102788;-72
2024/03/18 05:44:09;;;;;;;15.02;7.25;;;;;;;8.48;84.86;98440.88;5005549;28;104107;-74
2024/03/18 05:46:35;;;;;;;11.27;7.05;;;;;;;8.61;85.34;98446.50;4998235;27;102993;-73
2024/03/18 05:49:03;;;;;;;10.82;6.65;;;;;;;8.60;85.31;98439.56;5008254;27;102788;-73
2024/03/18 05:51:33;;;;;;;15.35;6.95;;;;;;;8.48;85.82;98446.16;5005994;27;103298;-71
2024/03/18 05:53:59;;;;;;;9.80;6.30;;;;;;;8.42;85.91;98437.84;5006867;28;103934;-71
2024/03/18 05:56:25;;;;;;;10.77;5.68;;;;;;;8.55;86.13;98433.94;5005075;27;102842;-68
2024/03/18 05:58:50;;;;;;;11.95;6.47;;;;;;;8.72;85.96;98437.44;4990350;28;103083;-71
2024/03/18 06:01:16;;;;;;;13.90;6.90;;;;;;;8.60;84.99;98434.28;4998742;27;103480;-72
2024/03/18 06:03:45;;;;;;;10.52;6.22;;;;;;;8.62;85.53;98440.25;4985769;27;105318;-73
2024/03/18 06:06:11;;;;;;;10.68;6.63;;;;;;;8.68;85.26;98442.22;5003257;28;102728;-73
2024/03/18 06:08:38;;;;;;;16.05;7.18;;;;;;;8.40;86.14;98433.72;5002296;27;103395;-71
2024/03/18 06:11:05;;;;;;;11.38;7.03;;;;;;;8.16;87.22;98439.72;4968014;27;103055;-74
2024/03/18 06:13:32;;;;;;;10.20;6.43;;;;;;;8.17;87.89;98444.03;4987522;27;103711;-73
2024/03/18 06:16:01;;;;;;;10.95;6.55;;;;;;;8.20;87.12;98444.53;4989034;28;103433;-73
2024/03/18 06:18:28;;;;;;;13.65;6.57;;;;;;;8.23;87.34;98443.38;4995312;27;104780;-72
2024/03/18 06:21:00;;;;;;;13.90;6.95;;;;;;;8.29;87.19;98445.38;4969136;28;103212;-73
2024/03/18 06:23:27;;;;;;;9.27;5.40;;;;;;;8.37;87.26;98447.22;4957013;27;107205;-72
2024/03/18 06:25:59;;;;;;;12.25;5.35;;;;;;;8.52;86.76;98450.09;4986868;28;102734;-73
2024/03/18 06:28:33;;;;;;;12.80;6.00;;;;;;;8.58;86.51;98452.09;5002226;27;102930;-69
2024/03/18 06:30:59;;;;;;;11.18;5.78;;;;;;;8.52;85.99;98447.47;5004559;28;103214;-73
2024/03/18 06:33:26;;;;;;;9.40;4.90;;;;;;;8.56;85.90;98448.78;5003944;27;103227;-71
2024/03/18 06:35:56;;;;;;;11.85;6.07;;;;;;;8.43;85.76;98450.03;5000030;27;102747;-73
2024/03/18 06:38:23;;;;;;;10.13;4.90;;;;;;;8.71;85.68;98454.25;4981926;28;102805;-73
2024/03/18 06:40:53;;;;;;;10.57;5.32;;;;;;;8.85;84.85;98458.09;5007455;27;103428;-73
2024/03/18 06:43:19;;;;;;;8.65;4.88;;;;;;;8.92;84.63;98448.50;4995223;27;103175;-74
2024/03/18 06:45:45;;;;;;;8.88;4.55;;;;;;;8.94;84.38;98460.56;5002035;27;102921;-73
2024/03/18 06:48:11;;;;;;;10.20;5.15;;;;;;;8.78;84.38;98460.56;4989302;28;102837;-74
2024/03/18 06:50:38;;;;;;;9.95;4.97;;;;;;;8.69;84.71;98458.91;4971872;27;105377;-73
2024/03/18 06:53:05;;;;;;;9.98;5.45;;;;;;;8.58;84.27;98463.50;4992653;28;103324;-72
2024/03/18 06:55:33;;;;;;;9.38;5.07;;;;;;;8.62;84.47;98469.28;4975426;27;103133;-72
2024/03/18 06:57:59;;;;;;;10.52;5.25;;;;;;;8.70;84.25;98471.94;4985256;28;102820;-65
2024/03/18 07:00:27;;;;;;;13.35;5.82;;;;;;;8.58;85.05;98470.56;4985303;27;103348;-66
2024/03/18 07:02:53;;;;;;;9.75;4.35;;;;;;;8.85;84.80;98473.94;4974857;28;104399;-65
2024/03/18 07:05:22;;;;;;;7.18;4.43;;;;;;;8.99;84.55;98473.28;4952212;28;103538;-65
2024/03/18 07:07:49;;;;;;;7.78;4.28;;;;;;;9.09;83.76;98479.25;4996707;27;103016;-66
2024/03/18 07:10:18;;;;;;;8.18;4.20;;;;;;;9.21;83.60;98473.63;5003981;27;103305;-66
2024/03/18 07:12:45;;;;;;;10.45;5.32;;;;;;;9.12;83.65;98480.75;5001343;27;105919;-66
2024/03/18 07:15:18;;;;;;;7.32;4.20;;;;;;;9.24;83.53;98475.97;4989311;28;102802;-66
2024/03/18 07:17:44;;;;;;;8.32;4.85;;;;;;;9.24;83.24;98483.88;4999742;27;102845;-66
2024/03/18 07:20:12;;;;;;;7.93;4.43;;;;;;;9.31;83.32;98482.22;4978994;28;107986;-66
2024/03/18 07:22:41;;;;;;;7.63;4.05;;;;;;;9.38;83.28;98480.59;4986468;27;103485;-66
2024/03/18 07:25:09;;;;;;;7.80;3.83;;;;;;;9.44;83.14;98473.78;5000871;27;102994;-66
2024/03/18 07:27:39;;;;;;;10.82;4.05;;;;;;;9.49;83.11;98475.94;4994021;27;103429;-65
2024/03/18 07:30:06;;;;;;;8.43;4.30;;;;;;;9.53;83.05;98483.38;4984367;28;103855;-66
2024/03/18 07:32:32;;;;;;;7.18;4.47;;;;;;;9.56;82.81;98477.78;4970952;27;105721;-66
2024/03/18 07:34:58;;;;;;;11.23;5.40;;;;;;;9.50;82.53;98472.28;5001631;27;104128;-66
2024/03/18 07:37:23;;;;;;;10.93;5.68;;;;;;;9.41;83.02;98469.66;5002463;27;104295;-66
2024/03/18 07:39:49;;;;;;;9.77;4.43;;;;;;;9.53;82.85;98471.97;4984674;28;104315;-65
2024/03/18 07:42:16;;;;;;;7.50;4.30;;;;;;;9.60;82.98;98472.94;4988494;28;103165;-66
2024/03/18 07:44:42;;;;;;;10.40;4.90;;;;;;;9.66;83.10;98461.72;5003527;27;103258;-65
2024/03/18 07:47:10;;;;;;;8.95;4.65;;;;;;;9.72;82.99;98466.34;4979500;27;102895;-65
2024/03/18 07:49:36;;;;;;;6.72;4.55;;;;;;;9.67;82.52;98468.66;4988346;27;105036;-65
2024/03/18 07:52:06;;;;;;;8.43;4.43;;;;;;;9.74;82.58;98464.34;4966749;28;105236;-65
2024/03/18 07:54:34;;;;;;;8.45;4.53;;;;;;;9.79;82.52;98467.28;4985008;27;102782;-65
2024/03/18 07:57:06;;;;;;;10.25;4.90;;;;;;;9.84;82.59;98458.03;4999023;27;103171;-66
2024/03/18 07:59:34;;;;;;;9.68;5.10;;;;;;;9.89;82.53;98468.94;4987649;27;103173;-66
2024/03/18 08:02:00;;;;;;;11.75;6.40;;;;;;;9.89;82.54;98471.56;4988643;28;105536;-66
2024/03/18 08:04:26;;;;;;;13.75;5.65;;;;;;;9.88;82.42;98469.94;5004104;27;104965;-66
2024/03/18 08:06:52;;;;;;;10.45;5.65;;;;;;;9.92;82.85;98465.97;5005065;27;102756;-66
2024/03/18 08:09:19;;;;;;;15.70;7.75;;;;;;;9.90;83.14;98462.66;4994384;27;103291;-67
2024/03/18 08:11:46;;;;;;;13.50;6.35;;;;;;;10.00;83.03;98462.47;4980998;27;105340;-66
2024/03/18 08:14:12;;;;;;;14.77;7.10;;;;;;;9.83;83.53;98469.63;5003714;27;102750;-66
2024/03/18 08:16:42;;;;;;;12.70;5.97;;;;;;;9.93;83.24;98464.94;5002484;27;103368;-66
2024/03/18 08:19:08;;;;;;;10.35;6.03;;;;;;;10.03;83.18;98462.94;4967991;28;105404;-67
2024/03/18 08:21:34;;;;;;;10.60;6.15;;;;;;;9.95;83.44;98461.13;4987622;27;103074;-66
2024/03/18 08:24:00;;;;;;;13.93;6.43;;;;;;;9.90;83.83;98460.00;4989541;28;102801;-66
2024/03/18 08:26:28;;;;;;;10.35;6.57;;;;;;;9.91;83.75;98459.81;5003006;27;104750;-66
2024/03/18 08:28:57;;;;;;;11.13;6.10;;;;;;;9.86;84.08;98450.75;4984876;28;105883;-66
2024/03/18 08:31:22;;;;;;;8.93;5.38;;;;;;;9.91;83.95;98453.72;4997174;27;103103;-66
2024/03/18 08:33:48;;;;;;;15.27;8.50;;;;;;;9.56;84.22;98461.06;5000141;27;102696;-67
2024/03/18 08:36:14;;;;;;;15.48;7.45;;;;;;;9.43;85.27;98474.78;5001922;28;102764;-66
2024/03/18 08:38:40;;;;;;;14.63;8.25;;;;;;;9.25;86.05;98475.78;4988915;27;105163;-67
2024/03/18 08:41:05;;;;;;;17.77;8.90;;;;;;;9.20;86.61;98474.63;5003638;27;103237;-66
2024/03/18 08:43:31;;;;;;;15.23;9.05;;;;;;;9.05;86.90;98485.84;5004603;27;102887;-66
2024/03/18 08:45:57;;;;;;;18.55;8.55;;;;;;;9.08;87.53;98485.53;4991053;28;104421;-67
2024/03/18 08:48:27;;;;;;;15.77;8.63;;;;;;;9.23;86.97;98487.50;4996977;27;105170;-66
2024/03/18 08:50:55;;;;;;;12.55;7.43;;;;;;;9.46;86.60;98480.56;4983692;28;110464;-66
2024/03/18 08:53:21;;;;;;;11.88;8.20;;;;;;;9.56;86.44;98479.56;4991564;27;103449;-65
2024/03/18 08:55:47;;;;;;;22.10;8.05;;;;;;;9.56;86.14;98484.84;4988384;27;103142;-65
2024/03/18 08:58:13;;;;;;;15.00;8.73;;;;;;;9.56;86.14;98476.94;5002212;28;103294;-65
2024/03/18 09:00:45;;;;;;;15.93;7.72;;;;;;;9.66;85.92;98474.13;5005689;27;103473;-65
2024/03/18 09:03:11;;;;;;;13.95;8.43;;;;;;;9.76;85.57;98482.66;5000146;27;103022;-65
2024/03/18 09:05:37;;;;;;;10.77;6.78;;;;;;;9.95;85.36;98476.19;5001168;27;102755;-66
2024/03/18 09:08:05;;;;;;;11.80;6.43;;;;;;;10.18;84.71;98470.16;4989351;28;105743;-66
2024/03/18 09:10:31;;;;;;;11.73;6.18;;;;;;;10.27;84.01;98472.63;5003241;27;103413;-65
2024/03/18 09:13:02;;;;;;;16.15;8.98;;;;;;;10.23;83.74;98478.41;4968097;28;105393;-65
2024/03/18 09:15:28;;;;;;;13.32;7.60;;;;;;;10.22;83.65;98476.78;4975715;27;103294;-65
2024/03/18 09:17:54;;;;;;;12.98;7.20;;;;;;;10.28;83.63;98478.72;4986771;28;105294;-65
2024/03/18 09:20:20;;;;;;;10.90;6.97;;;;;;;10.36;83.51;98476.09;4985988;27;106234;-65
2024/03/18 09:22:47;;;;;;;11.85;6.70;;;;;;;10.57;83.46;98483.44;4983516;27;102790;-65
2024/03/18 09:25:17;;;;;;;10.52;7.10;;;;;;;10.43;82.65;98482.34;5002777;27;103047;-65
2024/03/18 09:27:43;;;;;;;15.90;7.45;;;;;;;10.25;81.66;98482.53;4979020;27;104205;-65
2024/03/18 09:30:09;;;;;;;9.00;6.15;;;;;;;10.59;82.55;98484.06;4995467;27;103222;-66
2024/03/18 09:32:35;;;;;;;9.43;5.40;;;;;;;10.83;82.39;98473.53;4977422;27;107233;-66
2024/03/18 09:35:01;;;;;;;12.52;6.32;;;;;;;10.92;81.74;98477.78;4968992;28;103215;-65
2024/03/18 09:37:28;;;;;;;8.95;5.55;;;;;;;11.02;81.64;98474.91;4986164;27;104540;-65
2024/03/18 09:39:59;;;;;;;10.85;6.30;;;;;;;10.44;81.60;98475.22;4984351;28;105295;-65
2024/03/18 09:42:27;;;;;;;12.68;6.30;;;;;;;10.68;81.21;98484.88;4998153;27;102838;-65
2024/03/18 09:44:53;;;;;;;8.55;5.55;;;;;;;10.98;81.90;98481.53;4999785;27;103102;-65
2024/03/18 09:47:23;;;;;;;11.80;5.93;;;;;;;11.12;81.36;98483.41;4982289;27;103358;-65
2024/03/18 09:49:53;;;;;;;14.00;7.20;;;;;;;10.78;81.30;98490.78;4994154;28;103334;-64
2024/03/18 09:52:23;;;;;;;12.82;5.90;;;;;;;11.10;81.27;98488.91;4993458;27;104050;-65
2024/03/18 09:54:51;;;;;;;10.13;5.72;;;;;;;11.23;81.19;98484.84;4999576;28;102730;-68
2024/03/18 09:57:24;;;;;;;10.70;5.57;;;;;;;11.39;80.98;98483.91;4986275;27;103276;-65
2024/03/18 09:59:50;;;;;;;11.82;5.07;;;;;;;11.26;80.33;98481.84;4964820;28;105556;-65
2024/03/18 10:02:16;;;;;;;8.70;5.30;;;;;;;11.37;80.34;98486.72;4981784;28;102738;-65
2024/03/18 10:04:43;;;;;;;10.98;5.22;;;;;;;11.25;79.79;98488.97;4977625;28;103038;-65
2024/03/18 10:07:15;;;;;;;11.63;5.72;;;;;;;10.74;81.51;98502.72;4986350;28;104123;-65
2024/03/18 10:09:47;;;;;;;12.43;5.38;;;;;;;10.90;81.75;98493.00;4978303;28;110810;-65
2024/03/18 10:12:14;;;;;;;10.88;5.53;;;;;;;11.17;80.16;98491.66;4984237;28;103122;-65
2024/03/18 10:14:41;;;;;;;14.07;5.95;;;;;;;10.83;80.87;98506.13;4999819;27;104101;-66
2024/03/18 10:17:15;;;;;;;12.63;5.22;;;;;;;11.20;80.76;98501.09;4987416;28;105431;-65
2024/03/18 10:19:45;;;;;;;8.55;4.97;;;;;;;11.31;80.00;98498.03;4998713;27;107960;-66
2024/03/18 10:22:12;;;;;;;8.93;5.15;;;;;;;11.39;79.67;98497.97;4999528;28;102899;-66
2024/03/18 10:24:39;;;;;;;7.40;4.70;;;;;;;11.56;79.20;98501.31;5008704;27;104305;-65
2024/03/18 10:27:07;;;;;;;10.82;5.63;;;;;;;11.14;79.09;98502.63;5007614;28;107293;-65
2024/03/18 10:29:32;;;;;;;10.82;5.22;;;;;;;11.36;79.50;98500.97;5004829;27;103263;-65
2024/03/18 10:31:58;;;;;;;12.23;5.10;;;;;;;11.00;78.10;98500.75;4983384;28;102749;-65
2024/03/18 10:34:24;;;;;;;8.27;4.85;;;;;;;10.86;79.50;98510.25;5003753;27;102705;-65
2024/03/18 10:36:58;;;;;;;10.70;4.68;;;;;;;11.32;79.38;98498.84;4990444;28;103575;-66
2024/03/18 10:39:51;;;;;;;9.27;4.25;;;;;;;11.41;77.84;98508.38;5005789;27;103683;-65
2024/03/18 10:42:20;;;;;;;8.32;4.00;;;;;;;11.57;78.62;98507.44;4996127;27;103301;-66
2024/03/18 10:45:05;;;;;;;12.05;5.60;;;;;;;11.34;78.68;98505.63;4991180;28;103853;-66
2024/03/18 10:47:32;;;;;;;7.20;4.13;;;;;;;11.40;79.70;98501.47;5004500;27;103409;-65
2024/03/18 10:49:59;;;;;;;10.68;5.47;;;;;;;11.14;79.27;98507.94;4986696;28;103153;-65
2024/03/18 10:52:25;;;;;;;11.32;7.10;;;;;;;11.09;79.86;98508.44;5000314;27;103010;-66
2024/03/18 10:54:55;;;;;;;9.23;5.28;;;;;;;11.39;79.10;98511.22;5002904;27;104371;-66
2024/03/18 10:57:21;;;;;;;11.30;5.30;;;;;;;11.46;79.33;98508.69;5000135;27;103400;-66
2024/03/18 10:59:47;;;;;;;9.50;5.45;;;;;;;11.55;78.94;98510.25;5001670;28;103523;-66
2024/03/18 11:02:13;;;;;;;13.00;5.18;;;;;;;11.37;79.83;98507.09;4987151;28;102762;-66
2024/03/18 11:04:40;;;;;;;9.95;5.57;;;;;;;11.16;80.18;98515.72;4994148;27;102971;-67
2024/03/18 11:07:07;;;;;;;14.13;5.82;;;;;;;11.28;79.69;98509.81;5005391;28;103211;-67
2024/03/18 11:09:38;;;;;;;8.57;5.38;;;;;;;10.90;82.21;98511.56;4983341;28;103810;-67
2024/03/18 11:12:27;;;;;;;9.85;5.93;;;;;;;10.67;82.20;98511.53;4993521;28;103252;-67
2024/03/18 11:15:15;;;;;;;10.15;6.28;;;;;;;10.52;81.74;98516.72;4983546;27;102966;-66
2024/03/18 11:17:42;;;;;;;11.27;5.65;;;;;;;10.45;82.72;98525.38;5002970;27;107999;-67
2024/03/18 11:20:18;;;;;;;9.32;5.18;;;;;;;10.52;82.89;98524.66;4985225;28;104738;-66
2024/03/18 11:22:58;;;;;;;11.90;5.47;;;;;;;10.78;81.80;98530.50;5003521;28;102726;-66
2024/03/18 11:25:26;;;;;;;10.85;5.20;;;;;;;10.85;82.69;98529.81;4996752;27;104730;-66
2024/03/18 11:27:55;;;;;;;6.55;4.10;;;;;;;11.02;82.61;98526.06;5000544;27;103185;-66